sensor_id;sensor_type;location;lat;lon;timestamp;temperature;humidity
19168;DHT22;9716;53.114;18.040;2024-03-22T00:02:07;10.70;99.90
19168;DHT22;9716;53.114;18.040;2024-03-22T00:04:35;10.60;99.90
19168;DHT22;9716;53.114;18.040;2024-03-22T00:07:03;10.60;99.90
19168;DHT22;9716;53.114;18.040;2024-03-22T00:09:32;10.50;99.90
19168;DHT22;9716;53.114;18.040;2024-03-22T00:12:00;10.50;99.90
19168;DHT22;9716;53.114;18.040;2024-03-22T00:14:26;10.50;99.90
19168;DHT22;9716;53.114;18.040;2024-03-22T00:16:54;10.40;99.90
19168;DHT22;9716;53.114;18.040;2024-03-22T00:19:21;10.40;99.90
19168;DHT22;9716;53.114;18.040;2024-03-22T00:21:48;10.30;99.90
19168;DHT22;9716;53.114;18.040;2024-03-22T00:24:15;10.30;99.90
19168;DHT22;9716;53.114;18.040;2024-03-22T00:26:44;10.30;99.90
19168;DHT22;9716;53.114;18.040;2024-03-22T00:29:11;10.30;99.90
19168;DHT22;9716;53.114;18.040;2024-03-22T00:31:38;10.20;99.90
19168;DHT22;9716;53.114;18.040;2024-03-22T00:34:05;10.20;99.90
19168;DHT22;9716;53.114;18.040;2024-03-22T00:36:33;10.20;99.90
19168;DHT22;9716;53.114;18.040;2024-03-22T00:39:00;10.20;99.90
19168;DHT22;9716;53.114;18.040;2024-03-22T00:41:27;10.20;99.90
19168;DHT22;9716;53.114;18.040;2024-03-22T00:43:56;10.20;99.90
19168;DHT22;9716;53.114;18.040;2024-03-22T00:46:24;10.20;99.90
19168;DHT22;9716;53.114;18.040;2024-03-22T00:48:51;10.20;99.90
19168;DHT22;9716;53.114;18.040;2024-03-22T00:51:18;10.20;99.90
19168;DHT22;9716;53.114;18.040;2024-03-22T00:53:45;10.20;99.90
19168;DHT22;9716;53.114;18.040;2024-03-22T00:56:13;10.20;99.90
19168;DHT22;9716;53.114;18.040;2024-03-22T00:58:40;10.20;99.90
19168;DHT22;9716;53.114;18.040;2024-03-22T01:01:09;10.20;99.90
19168;DHT22;9716;53.114;18.040;2024-03-22T01:03:36;10.20;99.90
19168;DHT22;9716;53.114;18.040;2024-03-22T01:06:04;10.10;99.90
19168;DHT22;9716;53.114;18.040;2024-03-22T01:08:31;10.10;99.90
19168;DHT22;9716;53.114;18.040;2024-03-22T01:10:58;10.00;99.90
19168;DHT22;9716;53.114;18.040;2024-03-22T01:13:25;10.00;99.90
19168;DHT22;9716;53.114;18.040;2024-03-22T01:15:53;10.00;99.90
19168;DHT22;9716;53.114;18.040;2024-03-22T01:18:21;9.90;99.90
19168;DHT22;9716;53.114;18.040;2024-03-22T01:20:48;9.90;99.90
19168;DHT22;9716;53.114;18.040;2024-03-22T01:23:15;9.90;99.90
19168;DHT22;9716;53.114;18.040;2024-03-22T01:25:42;9.80;99.90
19168;DHT22;9716;53.114;18.040;2024-03-22T01:28:09;9.80;99.90
19168;DHT22;9716;53.114;18.040;2024-03-22T01:30:37;9.80;99.90
19168;DHT22;9716;53.114;18.040;2024-03-22T01:33:04;9.80;99.90
19168;DHT22;9716;53.114;18.040;2024-03-22T01:35:33;9.80;99.90
19168;DHT22;9716;53.114;18.040;2024-03-22T01:38:00;9.70;99.90
19168;DHT22;9716;53.114;18.040;2024-03-22T01:40:27;9.80;99.90
19168;DHT22;9716;53.114;18.040;2024-03-22T01:42:56;9.80;99.90
19168;DHT22;9716;53.114;18.040;2024-03-22T01:45:23;9.80;99.90
19168;DHT22;9716;53.114;18.040;2024-03-22T01:47:51;9.70;99.90
19168;DHT22;9716;53.114;18.040;2024-03-22T01:50:20;9.80;99.90
19168;DHT22;9716;53.114;18.040;2024-03-22T01:52:48;9.70;99.90
19168;DHT22;9716;53.114;18.040;2024-03-22T01:55:16;9.80;99.90
19168;DHT22;9716;53.114;18.040;2024-03-22T01:57:44;9.70;99.90
19168;DHT22;9716;53.114;18.040;2024-03-22T02:00:12;9.70;99.90
19168;DHT22;9716;53.114;18.040;2024-03-22T02:02:41;9.70;99.90
19168;DHT22;9716;53.114;18.040;2024-03-22T02:05:13;9.70;99.90
19168;DHT22;9716;53.114;18.040;2024-03-22T02:07:40;9.70;99.90
19168;DHT22;9716;53.114;18.040;2024-03-22T02:10:09;9.70;99.90
19168;DHT22;9716;53.114;18.040;2024-03-22T02:12:37;9.70;99.90
19168;DHT22;9716;53.114;18.040;2024-03-22T02:15:05;9.60;99.90
19168;DHT22;9716;53.114;18.040;2024-03-22T02:17:33;9.70;99.90
19168;DHT22;9716;53.114;18.040;2024-03-22T02:20:01;9.70;99.90
19168;DHT22;9716;53.114;18.040;2024-03-22T02:22:28;9.60;99.90
19168;DHT22;9716;53.114;18.040;2024-03-22T02:24:57;9.60;99.90
19168;DHT22;9716;53.114;18.040;2024-03-22T02:27:25;9.70;99.90
19168;DHT22;9716;53.114;18.040;2024-03-22T02:29:52;9.60;99.90
19168;DHT22;9716;53.114;18.040;2024-03-22T02:32:19;9.60;99.90
19168;DHT22;9716;53.114;18.040;2024-03-22T02:34:47;9.50;99.90
19168;DHT22;9716;53.114;18.040;2024-03-22T02:37:14;9.50;99.90
19168;DHT22;9716;53.114;18.040;2024-03-22T02:39:41;9.50;99.90
19168;DHT22;9716;53.114;18.040;2024-03-22T02:42:09;9.50;99.90
19168;DHT22;9716;53.114;18.040;2024-03-22T02:44:37;9.50;99.90
19168;DHT22;9716;53.114;18.040;2024-03-22T02:47:09;9.50;99.90
19168;DHT22;9716;53.114;18.040;2024-03-22T02:49:38;9.50;99.90
19168;DHT22;9716;53.114;18.040;2024-03-22T02:52:05;9.50;99.90
19168;DHT22;9716;53.114;18.040;2024-03-22T02:54:33;9.40;99.90
19168;DHT22;9716;53.114;18.040;2024-03-22T02:57:00;9.40;99.90
19168;DHT22;9716;53.114;18.040;2024-03-22T02:59:29;9.40;99.90
19168;DHT22;9716;53.114;18.040;2024-03-22T03:01:56;9.40;99.90
19168;DHT22;9716;53.114;18.040;2024-03-22T03:04:24;9.40;99.90
19168;DHT22;9716;53.114;18.040;2024-03-22T03:06:50;9.40;99.90
19168;DHT22;9716;53.114;18.040;2024-03-22T03:09:18;9.30;99.90
19168;DHT22;9716;53.114;18.040;2024-03-22T03:11:45;9.30;99.90
19168;DHT22;9716;53.114;18.040;2024-03-22T03:14:12;9.30;99.90
19168;DHT22;9716;53.114;18.040;2024-03-22T03:16:40;9.30;99.90
19168;DHT22;9716;53.114;18.040;2024-03-22T03:19:08;9.30;99.90
19168;DHT22;9716;53.114;18.040;2024-03-22T03:21:36;9.30;99.90
19168;DHT22;9716;53.114;18.040;2024-03-22T03:27:20;9.20;99.90
19168;DHT22;9716;53.114;18.040;2024-03-22T03:29:47;9.20;99.90
19168;DHT22;9716;53.114;18.040;2024-03-22T03:32:16;9.20;99.90
19168;DHT22;9716;53.114;18.040;2024-03-22T03:34:42;9.20;99.90
19168;DHT22;9716;53.114;18.040;2024-03-22T03:37:10;9.20;99.90
19168;DHT22;9716;53.114;18.040;2024-03-22T03:39:36;9.20;99.90
19168;DHT22;9716;53.114;18.040;2024-03-22T03:42:04;9.20;99.90
19168;DHT22;9716;53.114;18.040;2024-03-22T03:44:31;9.20;99.90
19168;DHT22;9716;53.114;18.040;2024-03-22T03:47:00;9.20;99.90
19168;DHT22;9716;53.114;18.040;2024-03-22T03:49:28;9.20;99.90
19168;DHT22;9716;53.114;18.040;2024-03-22T03:51:56;9.20;99.90
19168;DHT22;9716;53.114;18.040;2024-03-22T03:54:22;9.10;99.90
19168;DHT22;9716;53.114;18.040;2024-03-22T03:56:50;9.10;99.90
19168;DHT22;9716;53.114;18.040;2024-03-22T03:59:17;9.10;99.90
19168;DHT22;9716;53.114;18.040;2024-03-22T04:01:45;9.10;99.90
19168;DHT22;9716;53.114;18.040;2024-03-22T04:04:12;9.10;99.90
19168;DHT22;9716;53.114;18.040;2024-03-22T04:06:41;9.00;99.90
19168;DHT22;9716;53.114;18.040;2024-03-22T04:09:09;9.10;99.90
19168;DHT22;9716;53.114;18.040;2024-03-22T04:11:38;9.00;99.90
19168;DHT22;9716;53.114;18.040;2024-03-22T04:14:04;9.00;99.90
19168;DHT22;9716;53.114;18.040;2024-03-22T04:16:32;9.00;99.90
19168;DHT22;9716;53.114;18.040;2024-03-22T04:19:01;9.00;99.90
19168;DHT22;9716;53.114;18.040;2024-03-22T04:21:28;8.90;99.90
19168;DHT22;9716;53.114;18.040;2024-03-22T04:23:56;8.90;99.90
19168;DHT22;9716;53.114;18.040;2024-03-22T04:26:24;8.90;99.90
19168;DHT22;9716;53.114;18.040;2024-03-22T04:28:50;8.90;99.90
19168;DHT22;9716;53.114;18.040;2024-03-22T04:31:18;8.80;99.90
19168;DHT22;9716;53.114;18.040;2024-03-22T04:33:45;8.80;99.90
19168;DHT22;9716;53.114;18.040;2024-03-22T04:36:13;8.80;99.90
19168;DHT22;9716;53.114;18.040;2024-03-22T04:38:39;8.80;99.90
19168;DHT22;9716;53.114;18.040;2024-03-22T04:41:09;8.70;99.90
19168;DHT22;9716;53.114;18.040;2024-03-22T04:43:37;8.70;99.90
19168;DHT22;9716;53.114;18.040;2024-03-22T04:46:05;8.70;99.90
19168;DHT22;9716;53.114;18.040;2024-03-22T04:48:32;8.70;99.90
19168;DHT22;9716;53.114;18.040;2024-03-22T04:51:01;8.60;99.90
19168;DHT22;9716;53.114;18.040;2024-03-22T04:53:28;8.70;99.90
19168;DHT22;9716;53.114;18.040;2024-03-22T04:55:55;8.60;99.90
19168;DHT22;9716;53.114;18.040;2024-03-22T04:58:23;8.60;99.90
19168;DHT22;9716;53.114;18.040;2024-03-22T05:00:57;8.60;99.90
19168;DHT22;9716;53.114;18.040;2024-03-22T05:03:24;8.60;99.90
19168;DHT22;9716;53.114;18.040;2024-03-22T05:05:52;8.60;99.90
19168;DHT22;9716;53.114;18.040;2024-03-22T05:08:19;8.60;99.90
19168;DHT22;9716;53.114;18.040;2024-03-22T05:10:47;8.60;99.90
19168;DHT22;9716;53.114;18.040;2024-03-22T05:13:15;8.60;99.90
19168;DHT22;9716;53.114;18.040;2024-03-22T05:15:44;8.60;99.90
19168;DHT22;9716;53.114;18.040;2024-03-22T05:18:11;8.70;99.90
19168;DHT22;9716;53.114;18.040;2024-03-22T05:20:39;8.60;99.90
19168;DHT22;9716;53.114;18.040;2024-03-22T05:23:11;8.70;99.90
19168;DHT22;9716;53.114;18.040;2024-03-22T05:25:40;8.70;99.90
19168;DHT22;9716;53.114;18.040;2024-03-22T05:28:06;8.70;99.90
19168;DHT22;9716;53.114;18.040;2024-03-22T05:30:35;8.70;99.90
19168;DHT22;9716;53.114;18.040;2024-03-22T05:33:03;8.80;99.90
19168;DHT22;9716;53.114;18.040;2024-03-22T05:35:31;8.80;99.90
19168;DHT22;9716;53.114;18.040;2024-03-22T05:37:58;8.80;99.90
19168;DHT22;9716;53.114;18.040;2024-03-22T05:40:26;8.90;99.90
19168;DHT22;9716;53.114;18.040;2024-03-22T05:42:53;8.90;99.90
19168;DHT22;9716;53.114;18.040;2024-03-22T05:45:20;8.90;99.90
19168;DHT22;9716;53.114;18.040;2024-03-22T05:47:47;8.90;99.90
19168;DHT22;9716;53.114;18.040;2024-03-22T05:50:16;8.90;99.90
19168;DHT22;9716;53.114;18.040;2024-03-22T05:52:43;8.90;99.90
19168;DHT22;9716;53.114;18.040;2024-03-22T05:55:12;8.90;99.90
19168;DHT22;9716;53.114;18.040;2024-03-22T05:57:39;8.90;99.90
19168;DHT22;9716;53.114;18.040;2024-03-22T06:00:07;8.90;99.90
19168;DHT22;9716;53.114;18.040;2024-03-22T06:02:35;8.90;99.90
19168;DHT22;9716;53.114;18.040;2024-03-22T06:05:03;9.00;99.90
19168;DHT22;9716;53.114;18.040;2024-03-22T06:07:32;9.00;99.90
19168;DHT22;9716;53.114;18.040;2024-03-22T06:10:07;9.00;99.90
19168;DHT22;9716;53.114;18.040;2024-03-22T06:12:34;9.10;99.90
19168;DHT22;9716;53.114;18.040;2024-03-22T06:15:03;9.10;99.90
19168;DHT22;9716;53.114;18.040;2024-03-22T06:17:33;9.20;99.90
19168;DHT22;9716;53.114;18.040;2024-03-22T06:20:03;9.30;99.90
19168;DHT22;9716;53.114;18.040;2024-03-22T06:22:33;9.40;99.90
19168;DHT22;9716;53.114;18.040;2024-03-22T06:25:00;9.40;99.90
19168;DHT22;9716;53.114;18.040;2024-03-22T06:27:28;9.40;99.90
19168;DHT22;9716;53.114;18.040;2024-03-22T06:29:55;9.50;99.90
19168;DHT22;9716;53.114;18.040;2024-03-22T06:32:23;9.50;99.90
19168;DHT22;9716;53.114;18.040;2024-03-22T06:34:51;9.40;99.90
19168;DHT22;9716;53.114;18.040;2024-03-22T06:37:18;9.40;99.90
19168;DHT22;9716;53.114;18.040;2024-03-22T06:39:47;9.50;99.90
19168;DHT22;9716;53.114;18.040;2024-03-22T06:42:14;9.50;99.90
19168;DHT22;9716;53.114;18.040;2024-03-22T06:44:42;9.50;99.90
19168;DHT22;9716;53.114;18.040;2024-03-22T06:47:09;9.50;99.90
19168;DHT22;9716;53.114;18.040;2024-03-22T06:49:37;9.50;99.90
19168;DHT22;9716;53.114;18.040;2024-03-22T06:52:04;9.50;99.90
19168;DHT22;9716;53.114;18.040;2024-03-22T06:54:32;9.50;99.90
19168;DHT22;9716;53.114;18.040;2024-03-22T06:57:00;9.70;99.90
19168;DHT22;9716;53.114;18.040;2024-03-22T06:59:28;9.50;99.90
19168;DHT22;9716;53.114;18.040;2024-03-22T07:01:58;9.50;99.90
19168;DHT22;9716;53.114;18.040;2024-03-22T07:04:26;9.50;99.90
19168;DHT22;9716;53.114;18.040;2024-03-22T07:06:53;9.50;99.90
19168;DHT22;9716;53.114;18.040;2024-03-22T07:09:21;9.60;99.90
19168;DHT22;9716;53.114;18.040;2024-03-22T07:11:48;9.60;99.90
19168;DHT22;9716;53.114;18.040;2024-03-22T07:14:18;9.70;99.90
19168;DHT22;9716;53.114;18.040;2024-03-22T07:16:45;9.70;99.90
19168;DHT22;9716;53.114;18.040;2024-03-22T07:19:13;9.80;99.90
19168;DHT22;9716;53.114;18.040;2024-03-22T07:21:40;9.90;99.90
19168;DHT22;9716;53.114;18.040;2024-03-22T07:24:08;9.90;99.90
19168;DHT22;9716;53.114;18.040;2024-03-22T07:26:34;10.00;99.90
19168;DHT22;9716;53.114;18.040;2024-03-22T07:29:03;10.00;99.90
19168;DHT22;9716;53.114;18.040;2024-03-22T07:31:31;10.10;99.90
19168;DHT22;9716;53.114;18.040;2024-03-22T07:33:59;10.20;99.90
19168;DHT22;9716;53.114;18.040;2024-03-22T07:36:26;10.20;99.90
19168;DHT22;9716;53.114;18.040;2024-03-22T07:38:54;10.30;99.90
19168;DHT22;9716;53.114;18.040;2024-03-22T07:41:22;10.30;99.90
19168;DHT22;9716;53.114;18.040;2024-03-22T07:43:50;10.40;99.90
19168;DHT22;9716;53.114;18.040;2024-03-22T07:46:17;10.50;99.90
19168;DHT22;9716;53.114;18.040;2024-03-22T07:48:46;10.50;99.90
19168;DHT22;9716;53.114;18.040;2024-03-22T07:51:13;10.50;99.90
19168;DHT22;9716;53.114;18.040;2024-03-22T07:53:41;10.70;99.90
19168;DHT22;9716;53.114;18.040;2024-03-22T07:56:08;10.50;99.90
19168;DHT22;9716;53.114;18.040;2024-03-22T07:58:38;10.60;99.90
19168;DHT22;9716;53.114;18.040;2024-03-22T08:01:05;10.60;99.90
19168;DHT22;9716;53.114;18.040;2024-03-22T08:03:33;10.60;99.90
19168;DHT22;9716;53.114;18.040;2024-03-22T08:06:01;10.60;99.90
19168;DHT22;9716;53.114;18.040;2024-03-22T08:08:29;10.60;99.90
19168;DHT22;9716;53.114;18.040;2024-03-22T08:10:56;10.60;99.90
19168;DHT22;9716;53.114;18.040;2024-03-22T08:13:24;10.60;99.90
19168;DHT22;9716;53.114;18.040;2024-03-22T08:15:51;10.60;99.90
19168;DHT22;9716;53.114;18.040;2024-03-22T08:18:19;10.60;99.90
19168;DHT22;9716;53.114;18.040;2024-03-22T08:20:46;10.70;99.90
19168;DHT22;9716;53.114;18.040;2024-03-22T08:23:17;10.80;99.90
19168;DHT22;9716;53.114;18.040;2024-03-22T08:25:46;10.80;99.90
19168;DHT22;9716;53.114;18.040;2024-03-22T08:28:14;10.90;99.90
19168;DHT22;9716;53.114;18.040;2024-03-22T08:30:42;10.90;99.90
19168;DHT22;9716;53.114;18.040;2024-03-22T08:33:10;11.00;99.90
19168;DHT22;9716;53.114;18.040;2024-03-22T08:35:38;11.10;99.90
19168;DHT22;9716;53.114;18.040;2024-03-22T08:38:06;11.20;99.90
19168;DHT22;9716;53.114;18.040;2024-03-22T08:40:38;11.20;99.90
19168;DHT22;9716;53.114;18.040;2024-03-22T08:43:06;11.20;99.90
19168;DHT22;9716;53.114;18.040;2024-03-22T08:45:34;11.20;99.90
19168;DHT22;9716;53.114;18.040;2024-03-22T08:48:01;11.20;99.90
19168;DHT22;9716;53.114;18.040;2024-03-22T08:50:29;11.20;99.90
19168;DHT22;9716;53.114;18.040;2024-03-22T08:52:56;11.30;99.90
19168;DHT22;9716;53.114;18.040;2024-03-22T08:55:23;11.30;99.90
19168;DHT22;9716;53.114;18.040;2024-03-22T08:57:52;11.40;99.90
19168;DHT22;9716;53.114;18.040;2024-03-22T09:00:20;11.50;99.90
19168;DHT22;9716;53.114;18.040;2024-03-22T09:02:47;11.70;99.90
19168;DHT22;9716;53.114;18.040;2024-03-22T09:05:14;11.90;99.90
19168;DHT22;9716;53.114;18.040;2024-03-22T09:07:42;12.00;99.90
19168;DHT22;9716;53.114;18.040;2024-03-22T09:10:09;12.20;99.90
19168;DHT22;9716;53.114;18.040;2024-03-22T09:12:37;12.30;99.90
19168;DHT22;9716;53.114;18.040;2024-03-22T09:15:07;12.50;99.90
19168;DHT22;9716;53.114;18.040;2024-03-22T09:17:35;12.60;99.90
19168;DHT22;9716;53.114;18.040;2024-03-22T09:20:02;12.70;99.90
19168;DHT22;9716;53.114;18.040;2024-03-22T09:22:31;12.70;99.90
19168;DHT22;9716;53.114;18.040;2024-03-22T09:24:59;12.80;99.90
19168;DHT22;9716;53.114;18.040;2024-03-22T09:27:27;12.80;99.90
19168;DHT22;9716;53.114;18.040;2024-03-22T09:29:54;12.90;99.90
19168;DHT22;9716;53.114;18.040;2024-03-22T09:32:23;12.90;99.90
19168;DHT22;9716;53.114;18.040;2024-03-22T09:34:50;12.90;99.90
19168;DHT22;9716;53.114;18.040;2024-03-22T09:37:18;12.90;99.90
19168;DHT22;9716;53.114;18.040;2024-03-22T09:39:46;12.90;99.90
19168;DHT22;9716;53.114;18.040;2024-03-22T09:42:16;12.90;99.90
19168;DHT22;9716;53.114;18.040;2024-03-22T09:44:48;13.00;99.90
19168;DHT22;9716;53.114;18.040;2024-03-22T09:47:15;12.90;99.90
19168;DHT22;9716;53.114;18.040;2024-03-22T09:49:44;12.90;99.90
19168;DHT22;9716;53.114;18.040;2024-03-22T09:52:13;12.90;99.90
19168;DHT22;9716;53.114;18.040;2024-03-22T09:54:41;12.90;99.90
19168;DHT22;9716;53.114;18.040;2024-03-22T09:57:11;12.90;99.90
19168;DHT22;9716;53.114;18.040;2024-03-22T09:59:42;13.00;99.90
19168;DHT22;9716;53.114;18.040;2024-03-22T10:02:10;13.10;99.90
19168;DHT22;9716;53.114;18.040;2024-03-22T10:04:39;13.20;99.90
19168;DHT22;9716;53.114;18.040;2024-03-22T10:07:07;13.40;99.90
19168;DHT22;9716;53.114;18.040;2024-03-22T10:09:36;13.60;99.90
19168;DHT22;9716;53.114;18.040;2024-03-22T10:12:04;13.70;99.90
19168;DHT22;9716;53.114;18.040;2024-03-22T10:14:32;13.80;99.90
19168;DHT22;9716;53.114;18.040;2024-03-22T10:17:00;13.90;99.90
19168;DHT22;9716;53.114;18.040;2024-03-22T10:19:27;13.90;99.90
19168;DHT22;9716;53.114;18.040;2024-03-22T10:22:01;13.90;99.90
19168;DHT22;9716;53.114;18.040;2024-03-22T10:24:30;13.80;99.90
19168;DHT22;9716;53.114;18.040;2024-03-22T10:26:59;13.70;99.90
19168;DHT22;9716;53.114;18.040;2024-03-22T10:29:26;13.60;99.90
19168;DHT22;9716;53.114;18.040;2024-03-22T10:31:54;13.60;99.90
19168;DHT22;9716;53.114;18.040;2024-03-22T10:34:22;13.70;99.90
19168;DHT22;9716;53.114;18.040;2024-03-22T10:36:51;13.80;99.90
19168;DHT22;9716;53.114;18.040;2024-03-22T10:39:19;13.80;99.90
19168;DHT22;9716;53.114;18.040;2024-03-22T10:41:48;13.90;99.90
19168;DHT22;9716;53.114;18.040;2024-03-22T10:44:16;13.90;99.90
19168;DHT22;9716;53.114;18.040;2024-03-22T10:46:45;14.00;99.90
19168;DHT22;9716;53.114;18.040;2024-03-22T10:49:16;14.00;99.90
19168;DHT22;9716;53.114;18.040;2024-03-22T10:51:45;14.00;99.90
19168;DHT22;9716;53.114;18.040;2024-03-22T10:54:17;13.90;99.90
19168;DHT22;9716;53.114;18.040;2024-03-22T10:56:48;13.90;99.90
19168;DHT22;9716;53.114;18.040;2024-03-22T10:59:18;13.80;99.90
19168;DHT22;9716;53.114;18.040;2024-03-22T11:01:46;13.70;99.90
19168;DHT22;9716;53.114;18.040;2024-03-22T11:04:16;13.70;99.90
19168;DHT22;9716;53.114;18.040;2024-03-22T11:06:47;13.60;99.90
19168;DHT22;9716;53.114;18.040;2024-03-22T11:09:20;13.40;99.90
19168;DHT22;9716;53.114;18.040;2024-03-22T11:11:54;13.20;99.90
19168;DHT22;9716;53.114;18.040;2024-03-22T11:14:21;13.10;99.90
19168;DHT22;9716;53.114;18.040;2024-03-22T11:16:51;12.90;99.90
19168;DHT22;9716;53.114;18.040;2024-03-22T11:19:20;12.80;99.90
19168;DHT22;9716;53.114;18.040;2024-03-22T11:21:47;12.70;99.90
19168;DHT22;9716;53.114;18.040;2024-03-22T11:24:15;12.60;99.90
19168;DHT22;9716;53.114;18.040;2024-03-22T11:26:43;12.50;99.90
19168;DHT22;9716;53.114;18.040;2024-03-22T11:29:14;12.50;99.90
19168;DHT22;9716;53.114;18.040;2024-03-22T11:31:42;12.40;99.90
19168;DHT22;9716;53.114;18.040;2024-03-22T11:34:10;12.30;99.90
19168;DHT22;9716;53.114;18.040;2024-03-22T11:36:38;12.30;99.90
19168;DHT22;9716;53.114;18.040;2024-03-22T11:39:06;12.30;99.90
19168;DHT22;9716;53.114;18.040;2024-03-22T11:41:34;12.10;99.90
19168;DHT22;9716;53.114;18.040;2024-03-22T11:44:02;12.00;99.90
19168;DHT22;9716;53.114;18.040;2024-03-22T11:46:31;12.00;99.90
19168;DHT22;9716;53.114;18.040;2024-03-22T11:48:59;11.90;99.90
19168;DHT22;9716;53.114;18.040;2024-03-22T11:51:26;11.90;99.90
19168;DHT22;9716;53.114;18.040;2024-03-22T11:53:54;11.90;99.90
19168;DHT22;9716;53.114;18.040;2024-03-22T11:56:25;11.80;99.90
19168;DHT22;9716;53.114;18.040;2024-03-22T11:58:58;11.80;99.90
19168;DHT22;9716;53.114;18.040;2024-03-22T12:01:26;11.80;99.90
19168;DHT22;9716;53.114;18.040;2024-03-22T12:03:56;11.70;99.90
19168;DHT22;9716;53.114;18.040;2024-03-22T12:06:23;11.70;99.90
19168;DHT22;9716;53.114;18.040;2024-03-22T12:08:50;11.70;99.90
19168;DHT22;9716;53.114;18.040;2024-03-22T12:11:20;11.60;99.90
19168;DHT22;9716;53.114;18.040;2024-03-22T12:13:48;11.60;99.90
19168;DHT22;9716;53.114;18.040;2024-03-22T12:16:15;11.70;99.90
19168;DHT22;9716;53.114;18.040;2024-03-22T12:18:43;11.70;99.90
19168;DHT22;9716;53.114;18.040;2024-03-22T12:21:12;11.80;99.90
19168;DHT22;9716;53.114;18.040;2024-03-22T12:23:40;11.80;99.90
19168;DHT22;9716;53.114;18.040;2024-03-22T12:26:07;11.90;99.90
19168;DHT22;9716;53.114;18.040;2024-03-22T12:28:34;12.00;99.90
19168;DHT22;9716;53.114;18.040;2024-03-22T12:31:03;12.10;99.90
19168;DHT22;9716;53.114;18.040;2024-03-22T12:33:31;12.20;99.90
19168;DHT22;9716;53.114;18.040;2024-03-22T12:35:58;12.40;99.90
19168;DHT22;9716;53.114;18.040;2024-03-22T12:38:27;12.50;99.90
19168;DHT22;9716;53.114;18.040;2024-03-22T12:40:54;12.60;99.90
19168;DHT22;9716;53.114;18.040;2024-03-22T12:43:22;12.70;99.90
19168;DHT22;9716;53.114;18.040;2024-03-22T12:45:49;12.80;99.90
19168;DHT22;9716;53.114;18.040;2024-03-22T12:48:16;12.90;99.90
19168;DHT22;9716;53.114;18.040;2024-03-22T12:50:43;12.90;99.90
19168;DHT22;9716;53.114;18.040;2024-03-22T12:53:11;12.90;99.90
19168;DHT22;9716;53.114;18.040;2024-03-22T12:55:40;12.90;99.90
19168;DHT22;9716;53.114;18.040;2024-03-22T12:58:07;12.90;99.90
19168;DHT22;9716;53.114;18.040;2024-03-22T13:00:34;12.90;99.90
19168;DHT22;9716;53.114;18.040;2024-03-22T13:03:03;12.90;99.90
19168;DHT22;9716;53.114;18.040;2024-03-22T13:05:30;12.90;99.90
19168;DHT22;9716;53.114;18.040;2024-03-22T13:07:58;13.00;99.90
19168;DHT22;9716;53.114;18.040;2024-03-22T13:10:25;13.00;99.90
19168;DHT22;9716;53.114;18.040;2024-03-22T13:12:56;13.10;99.90
19168;DHT22;9716;53.114;18.040;2024-03-22T13:15:41;13.10;99.90
19168;DHT22;9716;53.114;18.040;2024-03-22T13:18:09;13.00;99.90
19168;DHT22;9716;53.114;18.040;2024-03-22T13:20:36;13.10;99.90
19168;DHT22;9716;53.114;18.040;2024-03-22T13:23:04;13.10;99.90
19168;DHT22;9716;53.114;18.040;2024-03-22T13:25:38;13.10;99.90
19168;DHT22;9716;53.114;18.040;2024-03-22T13:28:07;13.20;99.90
19168;DHT22;9716;53.114;18.040;2024-03-22T13:30:35;13.20;99.90
19168;DHT22;9716;53.114;18.040;2024-03-22T13:33:04;13.20;99.90
19168;DHT22;9716;53.114;18.040;2024-03-22T13:35:32;13.20;99.90
19168;DHT22;9716;53.114;18.040;2024-03-22T13:37:59;13.20;99.90
19168;DHT22;9716;53.114;18.040;2024-03-22T13:40:28;13.20;99.90
19168;DHT22;9716;53.114;18.040;2024-03-22T13:42:55;13.10;99.90
19168;DHT22;9716;53.114;18.040;2024-03-22T13:45:24;13.10;99.90
19168;DHT22;9716;53.114;18.040;2024-03-22T13:47:51;13.10;99.90
19168;DHT22;9716;53.114;18.040;2024-03-22T13:50:19;13.10;99.90
19168;DHT22;9716;53.114;18.040;2024-03-22T13:52:45;13.10;99.90
19168;DHT22;9716;53.114;18.040;2024-03-22T13:55:14;13.10;99.90
19168;DHT22;9716;53.114;18.040;2024-03-22T13:57:41;13.10;99.90
19168;DHT22;9716;53.114;18.040;2024-03-22T14:00:09;13.10;99.90
19168;DHT22;9716;53.114;18.040;2024-03-22T14:02:42;13.00;99.90
19168;DHT22;9716;53.114;18.040;2024-03-22T14:05:23;13.00;99.90
19168;DHT22;9716;53.114;18.040;2024-03-22T14:08:08;13.00;99.90
19168;DHT22;9716;53.114;18.040;2024-03-22T14:10:36;12.90;99.90
19168;DHT22;9716;53.114;18.040;2024-03-22T14:13:03;12.90;99.90
19168;DHT22;9716;53.114;18.040;2024-03-22T14:15:34;12.80;99.90
19168;DHT22;9716;53.114;18.040;2024-03-22T14:18:03;12.80;99.90
19168;DHT22;9716;53.114;18.040;2024-03-22T14:20:31;12.80;99.90
19168;DHT22;9716;53.114;18.040;2024-03-22T14:23:19;12.80;99.90
19168;DHT22;9716;53.114;18.040;2024-03-22T14:25:50;12.80;99.90
19168;DHT22;9716;53.114;18.040;2024-03-22T14:28:16;12.80;99.90
19168;DHT22;9716;53.114;18.040;2024-03-22T14:30:45;12.80;99.90
19168;DHT22;9716;53.114;18.040;2024-03-22T14:33:13;12.80;99.90
19168;DHT22;9716;53.114;18.040;2024-03-22T14:35:41;12.70;99.90
19168;DHT22;9716;53.114;18.040;2024-03-22T14:38:07;12.70;99.90
19168;DHT22;9716;53.114;18.040;2024-03-22T14:40:35;12.70;99.90
19168;DHT22;9716;53.114;18.040;2024-03-22T14:43:03;12.70;99.90
19168;DHT22;9716;53.114;18.040;2024-03-22T14:45:31;12.70;99.90
19168;DHT22;9716;53.114;18.040;2024-03-22T14:47:58;12.70;99.90
19168;DHT22;9716;53.114;18.040;2024-03-22T14:50:28;12.60;99.90
19168;DHT22;9716;53.114;18.040;2024-03-22T14:52:54;12.60;99.90
19168;DHT22;9716;53.114;18.040;2024-03-22T14:55:22;12.50;99.90
19168;DHT22;9716;53.114;18.040;2024-03-22T14:57:49;12.50;99.90
19168;DHT22;9716;53.114;18.040;2024-03-22T15:00:17;12.40;99.90
19168;DHT22;9716;53.114;18.040;2024-03-22T15:02:44;12.40;99.90
19168;DHT22;9716;53.114;18.040;2024-03-22T15:05:17;12.40;99.90
19168;DHT22;9716;53.114;18.040;2024-03-22T15:08:06;12.30;99.90
19168;DHT22;9716;53.114;18.040;2024-03-22T15:10:34;12.40;99.90
19168;DHT22;9716;53.114;18.040;2024-03-22T15:13:02;12.40;99.90
19168;DHT22;9716;53.114;18.040;2024-03-22T15:15:30;12.50;99.90
19168;DHT22;9716;53.114;18.040;2024-03-22T15:17:57;12.60;99.90
19168;DHT22;9716;53.114;18.040;2024-03-22T15:20:25;12.70;99.90
19168;DHT22;9716;53.114;18.040;2024-03-22T15:22:56;13.00;99.90
19168;DHT22;9716;53.114;18.040;2024-03-22T15:25:26;13.00;99.90
19168;DHT22;9716;53.114;18.040;2024-03-22T15:27:54;13.20;99.90
19168;DHT22;9716;53.114;18.040;2024-03-22T15:30:25;13.40;99.90
19168;DHT22;9716;53.114;18.040;2024-03-22T15:32:53;13.50;99.90
19168;DHT22;9716;53.114;18.040;2024-03-22T15:35:22;13.60;99.90
19168;DHT22;9716;53.114;18.040;2024-03-22T15:37:49;13.70;99.90
19168;DHT22;9716;53.114;18.040;2024-03-22T15:40:17;13.70;99.90
19168;DHT22;9716;53.114;18.040;2024-03-22T15:42:47;13.80;99.90
19168;DHT22;9716;53.114;18.040;2024-03-22T15:45:16;13.80;99.90
19168;DHT22;9716;53.114;18.040;2024-03-22T15:47:43;13.90;99.90